sensor_id;sensor_type;location;lat;lon;timestamp;temperature;humidity
10089;DHT22;51898;49.864;8.550;2023-02-13T00:00:25;5.30;94.80
10089;DHT22;51898;49.864;8.550;2023-02-13T00:03:26;5.30;95.00
10089;DHT22;51898;49.864;8.550;2023-02-13T00:06:28;5.20;94.90
10089;DHT22;51898;49.864;8.550;2023-02-13T00:09:30;5.20;95.10
10089;DHT22;51898;49.864;8.550;2023-02-13T00:12:32;5.20;95.00
10089;DHT22;51898;49.864;8.550;2023-02-13T00:15:33;5.10;94.90
10089;DHT22;51898;49.864;8.550;2023-02-13T00:18:36;5.10;94.90
10089;DHT22;51898;49.864;8.550;2023-02-13T00:21:38;5.10;94.90
10089;DHT22;51898;49.864;8.550;2023-02-13T00:24:40;5.10;94.80
10089;DHT22;51898;49.864;8.550;2023-02-13T00:27:41;5.00;94.90
10089;DHT22;51898;49.864;8.550;2023-02-13T00:30:43;5.00;94.90
10089;DHT22;51898;49.864;8.550;2023-02-13T00:33:45;5.00;95.20
10089;DHT22;51898;49.864;8.550;2023-02-13T00:36:47;5.00;94.90
10089;DHT22;51898;49.864;8.550;2023-02-13T00:39:48;5.00;94.80
10089;DHT22;51898;49.864;8.550;2023-02-13T00:42:50;5.00;94.70
10089;DHT22;51898;49.864;8.550;2023-02-13T00:45:52;5.00;94.50
10089;DHT22;51898;49.864;8.550;2023-02-13T00:48:53;5.00;94.40
10089;DHT22;51898;49.864;8.550;2023-02-13T00:51:55;4.90;94.40
10089;DHT22;51898;49.864;8.550;2023-02-13T00:54:56;4.90;94.30
10089;DHT22;51898;49.864;8.550;2023-02-13T00:57:58;4.90;94.40
10089;DHT22;51898;49.864;8.550;2023-02-13T01:01:00;4.90;94.20
10089;DHT22;51898;49.864;8.550;2023-02-13T01:04:01;4.90;94.00
10089;DHT22;51898;49.864;8.550;2023-02-13T01:07:03;4.90;94.00
10089;DHT22;51898;49.864;8.550;2023-02-13T01:10:05;4.80;93.90
10089;DHT22;51898;49.864;8.550;2023-02-13T01:13:08;4.80;94.00
10089;DHT22;51898;49.864;8.550;2023-02-13T01:16:10;4.80;94.00
10089;DHT22;51898;49.864;8.550;2023-02-13T01:19:12;4.80;94.10
10089;DHT22;51898;49.864;8.550;2023-02-13T01:22:14;4.80;94.20
10089;DHT22;51898;49.864;8.550;2023-02-13T01:25:15;4.80;94.10
10089;DHT22;51898;49.864;8.550;2023-02-13T01:28:17;4.70;94.20
10089;DHT22;51898;49.864;8.550;2023-02-13T01:31:20;4.70;94.30
10089;DHT22;51898;49.864;8.550;2023-02-13T01:34:21;4.70;94.30
10089;DHT22;51898;49.864;8.550;2023-02-13T01:37:23;4.70;94.20
10089;DHT22;51898;49.864;8.550;2023-02-13T01:40:25;4.70;94.40
10089;DHT22;51898;49.864;8.550;2023-02-13T01:43:48;4.70;94.50
10089;DHT22;51898;49.864;8.550;2023-02-13T01:46:50;4.60;94.60
10089;DHT22;51898;49.864;8.550;2023-02-13T01:50:22;4.60;94.60
10089;DHT22;51898;49.864;8.550;2023-02-13T01:53:37;4.60;94.60
10089;DHT22;51898;49.864;8.550;2023-02-13T01:56:49;4.60;94.60
10089;DHT22;51898;49.864;8.550;2023-02-13T01:59:58;4.60;94.90
10089;DHT22;51898;49.864;8.550;2023-02-13T02:03:06;4.60;95.00
10089;DHT22;51898;49.864;8.550;2023-02-13T02:06:14;4.60;95.10
10089;DHT22;51898;49.864;8.550;2023-02-13T02:09:21;4.70;94.80
10089;DHT22;51898;49.864;8.550;2023-02-13T02:15:41;4.70;94.60
10089;DHT22;51898;49.864;8.550;2023-02-13T02:18:43;4.60;94.70
10089;DHT22;51898;49.864;8.550;2023-02-13T02:32:26;4.50;94.70
10089;DHT22;51898;49.864;8.550;2023-02-13T02:42:50;4.40;95.20
10089;DHT22;51898;49.864;8.550;2023-02-13T02:49:09;4.40;95.20
10089;DHT22;51898;49.864;8.550;2023-02-13T02:52:42;4.30;95.10
10089;DHT22;51898;49.864;8.550;2023-02-13T02:55:59;4.30;95.10
10089;DHT22;51898;49.864;8.550;2023-02-13T02:59:15;4.20;95.40
10089;DHT22;51898;49.864;8.550;2023-02-13T03:02:36;4.20;95.20
10089;DHT22;51898;49.864;8.550;2023-02-13T03:05:57;4.10;95.50
10089;DHT22;51898;49.864;8.550;2023-02-13T03:09:16;4.10;95.70
10089;DHT22;51898;49.864;8.550;2023-02-13T03:12:43;4.00;95.90
10089;DHT22;51898;49.864;8.550;2023-02-13T03:16:04;4.00;95.90
10089;DHT22;51898;49.864;8.550;2023-02-13T03:23:52;4.00;96.20
10089;DHT22;51898;49.864;8.550;2023-02-13T03:30:15;3.90;96.50
10089;DHT22;51898;49.864;8.550;2023-02-13T03:33:47;3.80;96.90
10089;DHT22;51898;49.864;8.550;2023-02-13T03:37:00;3.80;96.90
10089;DHT22;51898;49.864;8.550;2023-02-13T03:40:49;3.80;97.00
10089;DHT22;51898;49.864;8.550;2023-02-13T03:47:27;3.70;97.00
10089;DHT22;51898;49.864;8.550;2023-02-13T03:50:29;3.70;97.20
10089;DHT22;51898;49.864;8.550;2023-02-13T03:53:32;3.70;97.10
10089;DHT22;51898;49.864;8.550;2023-02-13T03:56:36;3.70;97.20
10089;DHT22;51898;49.864;8.550;2023-02-13T04:00:02;3.70;97.20
10089;DHT22;51898;49.864;8.550;2023-02-13T04:03:13;3.60;97.10
10089;DHT22;51898;49.864;8.550;2023-02-13T04:06:26;3.70;97.10
10089;DHT22;51898;49.864;8.550;2023-02-13T04:09:31;3.60;97.20
10089;DHT22;51898;49.864;8.550;2023-02-13T04:12:56;3.60;97.40
10089;DHT22;51898;49.864;8.550;2023-02-13T04:19:06;3.50;97.70
10089;DHT22;51898;49.864;8.550;2023-02-13T04:22:11;3.60;97.70
10089;DHT22;51898;49.864;8.550;2023-02-13T04:25:14;3.60;97.80
10089;DHT22;51898;49.864;8.550;2023-02-13T04:28:16;3.60;97.60
10089;DHT22;51898;49.864;8.550;2023-02-13T04:31:18;3.60;97.60
10089;DHT22;51898;49.864;8.550;2023-02-13T04:34:20;3.50;97.80
10089;DHT22;51898;49.864;8.550;2023-02-13T04:37:21;3.60;97.70
10089;DHT22;51898;49.864;8.550;2023-02-13T04:40:23;3.50;97.80
10089;DHT22;51898;49.864;8.550;2023-02-13T04:43:25;3.50;98.00
10089;DHT22;51898;49.864;8.550;2023-02-13T04:46:26;3.50;97.90
10089;DHT22;51898;49.864;8.550;2023-02-13T04:49:28;3.50;98.00
10089;DHT22;51898;49.864;8.550;2023-02-13T04:52:30;3.40;97.70
10089;DHT22;51898;49.864;8.550;2023-02-13T04:55:31;3.40;98.00
10089;DHT22;51898;49.864;8.550;2023-02-13T04:58:33;3.40;98.20
10089;DHT22;51898;49.864;8.550;2023-02-13T05:01:35;3.30;98.20
10089;DHT22;51898;49.864;8.550;2023-02-13T05:04:36;3.30;98.30
10089;DHT22;51898;49.864;8.550;2023-02-13T05:07:38;3.30;98.30
10089;DHT22;51898;49.864;8.550;2023-02-13T05:10:41;3.30;98.40
10089;DHT22;51898;49.864;8.550;2023-02-13T05:13:42;3.30;98.40
10089;DHT22;51898;49.864;8.550;2023-02-13T05:16:44;3.30;98.10
10089;DHT22;51898;49.864;8.550;2023-02-13T05:19:45;3.30;98.30
10089;DHT22;51898;49.864;8.550;2023-02-13T05:22:52;3.30;98.30
10089;DHT22;51898;49.864;8.550;2023-02-13T05:26:12;3.30;98.50
10089;DHT22;51898;49.864;8.550;2023-02-13T05:29:14;3.30;98.50
10089;DHT22;51898;49.864;8.550;2023-02-13T05:32:23;3.30;98.30
10089;DHT22;51898;49.864;8.550;2023-02-13T05:35:25;3.30;98.20
10089;DHT22;51898;49.864;8.550;2023-02-13T05:38:26;3.30;98.00
10089;DHT22;51898;49.864;8.550;2023-02-13T05:41:28;3.20;98.00
10089;DHT22;51898;49.864;8.550;2023-02-13T05:44:30;3.20;98.30
10089;DHT22;51898;49.864;8.550;2023-02-13T05:47:32;3.20;98.40
10089;DHT22;51898;49.864;8.550;2023-02-13T05:50:33;3.20;98.40
10089;DHT22;51898;49.864;8.550;2023-02-13T05:53:35;3.20;98.20
10089;DHT22;51898;49.864;8.550;2023-02-13T05:56:37;3.20;98.00
10089;DHT22;51898;49.864;8.550;2023-02-13T05:59:38;3.10;97.50
10089;DHT22;51898;49.864;8.550;2023-02-13T06:02:40;3.10;97.30
10089;DHT22;51898;49.864;8.550;2023-02-13T06:05:42;3.00;96.90
10089;DHT22;51898;49.864;8.550;2023-02-13T06:08:43;2.90;96.70
10089;DHT22;51898;49.864;8.550;2023-02-13T06:11:45;2.80;97.10
10089;DHT22;51898;49.864;8.550;2023-02-13T06:14:46;2.80;97.10
10089;DHT22;51898;49.864;8.550;2023-02-13T06:17:48;2.70;97.20
10089;DHT22;51898;49.864;8.550;2023-02-13T06:20:50;2.70;97.30
10089;DHT22;51898;49.864;8.550;2023-02-13T06:23:54;2.60;97.30
10089;DHT22;51898;49.864;8.550;2023-02-13T06:26:55;2.60;97.50
10089;DHT22;51898;49.864;8.550;2023-02-13T06:29:58;2.50;97.60
10089;DHT22;51898;49.864;8.550;2023-02-13T06:33:00;2.50;97.80
10089;DHT22;51898;49.864;8.550;2023-02-13T06:36:01;2.50;97.70
10089;DHT22;51898;49.864;8.550;2023-02-13T06:39:03;2.50;97.80
10089;DHT22;51898;49.864;8.550;2023-02-13T06:42:05;2.50;97.80
10089;DHT22;51898;49.864;8.550;2023-02-13T06:45:07;2.40;98.10
10089;DHT22;51898;49.864;8.550;2023-02-13T06:48:09;2.40;98.10
10089;DHT22;51898;49.864;8.550;2023-02-13T06:51:10;2.40;98.10
10089;DHT22;51898;49.864;8.550;2023-02-13T06:54:12;2.40;98.00
10089;DHT22;51898;49.864;8.550;2023-02-13T06:57:14;2.40;98.20
10089;DHT22;51898;49.864;8.550;2023-02-13T07:00:17;2.40;98.20
10089;DHT22;51898;49.864;8.550;2023-02-13T07:03:19;2.40;97.90
10089;DHT22;51898;49.864;8.550;2023-02-13T07:06:21;2.40;97.70
10089;DHT22;51898;49.864;8.550;2023-02-13T07:09:23;2.40;97.60
10089;DHT22;51898;49.864;8.550;2023-02-13T07:12:25;2.40;97.60
10089;DHT22;51898;49.864;8.550;2023-02-13T07:15:27;2.40;97.60
10089;DHT22;51898;49.864;8.550;2023-02-13T07:18:28;2.50;97.70
10089;DHT22;51898;49.864;8.550;2023-02-13T07:21:30;2.50;97.70
10089;DHT22;51898;49.864;8.550;2023-02-13T07:24:32;2.50;97.60
10089;DHT22;51898;49.864;8.550;2023-02-13T07:27:35;2.60;97.40
10089;DHT22;51898;49.864;8.550;2023-02-13T07:30:37;2.60;97.20
10089;DHT22;51898;49.864;8.550;2023-02-13T07:33:39;2.70;97.00
10089;DHT22;51898;49.864;8.550;2023-02-13T07:36:40;2.80;96.70
10089;DHT22;51898;49.864;8.550;2023-02-13T07:39:42;2.80;96.80
10089;DHT22;51898;49.864;8.550;2023-02-13T07:42:43;2.90;96.80
10089;DHT22;51898;49.864;8.550;2023-02-13T07:45:45;3.00;96.70
10089;DHT22;51898;49.864;8.550;2023-02-13T07:48:47;3.20;96.60
10089;DHT22;51898;49.864;8.550;2023-02-13T07:51:49;3.30;95.50
10089;DHT22;51898;49.864;8.550;2023-02-13T07:54:50;3.20;94.60
10089;DHT22;51898;49.864;8.550;2023-02-13T07:57:52;3.20;94.70
10089;DHT22;51898;49.864;8.550;2023-02-13T08:00:53;3.30;94.60
10089;DHT22;51898;49.864;8.550;2023-02-13T08:03:55;3.40;94.50
10089;DHT22;51898;49.864;8.550;2023-02-13T08:06:57;3.50;94.20
10089;DHT22;51898;49.864;8.550;2023-02-13T08:09:58;3.60;94.00
10089;DHT22;51898;49.864;8.550;2023-02-13T08:13:19;3.70;93.90
10089;DHT22;51898;49.864;8.550;2023-02-13T08:16:21;3.80;93.60
10089;DHT22;51898;49.864;8.550;2023-02-13T08:19:22;3.90;93.60
10089;DHT22;51898;49.864;8.550;2023-02-13T08:22:24;4.10;93.60
10089;DHT22;51898;49.864;8.550;2023-02-13T08:25:26;4.20;93.40
10089;DHT22;51898;49.864;8.550;2023-02-13T08:28:28;4.40;93.00
10089;DHT22;51898;49.864;8.550;2023-02-13T08:31:30;4.50;92.40
10089;DHT22;51898;49.864;8.550;2023-02-13T08:34:32;4.60;92.30
10089;DHT22;51898;49.864;8.550;2023-02-13T08:37:34;4.80;92.10
10089;DHT22;51898;49.864;8.550;2023-02-13T08:40:35;4.90;91.80
10089;DHT22;51898;49.864;8.550;2023-02-13T08:43:37;5.10;91.40
10089;DHT22;51898;49.864;8.550;2023-02-13T08:46:39;5.30;90.80
10089;DHT22;51898;49.864;8.550;2023-02-13T08:49:41;5.40;89.90
10089;DHT22;51898;49.864;8.550;2023-02-13T08:52:45;5.50;89.00
10089;DHT22;51898;49.864;8.550;2023-02-13T08:55:54;5.70;88.80
10089;DHT22;51898;49.864;8.550;2023-02-13T08:58:56;5.80;88.00
10089;DHT22;51898;49.864;8.550;2023-02-13T09:01:57;5.90;87.30
10089;DHT22;51898;49.864;8.550;2023-02-13T09:04:59;6.10;86.10
10089;DHT22;51898;49.864;8.550;2023-02-13T09:08:01;6.20;85.70
10089;DHT22;51898;49.864;8.550;2023-02-13T09:11:04;6.30;84.80
10089;DHT22;51898;49.864;8.550;2023-02-13T09:14:07;6.50;84.70
10089;DHT22;51898;49.864;8.550;2023-02-13T09:17:09;6.60;84.00
10089;DHT22;51898;49.864;8.550;2023-02-13T09:20:11;6.70;83.50
10089;DHT22;51898;49.864;8.550;2023-02-13T09:23:14;6.80;82.50
10089;DHT22;51898;49.864;8.550;2023-02-13T09:26:16;7.00;82.40
10089;DHT22;51898;49.864;8.550;2023-02-13T09:29:21;7.10;81.90
10089;DHT22;51898;49.864;8.550;2023-02-13T09:32:22;7.20;81.20
10089;DHT22;51898;49.864;8.550;2023-02-13T09:35:24;7.40;80.50
10089;DHT22;51898;49.864;8.550;2023-02-13T09:38:26;7.60;79.80
10089;DHT22;51898;49.864;8.550;2023-02-13T09:41:39;7.60;79.30
10089;DHT22;51898;49.864;8.550;2023-02-13T09:44:42;7.70;79.10
10089;DHT22;51898;49.864;8.550;2023-02-13T09:47:45;7.90;78.90
10089;DHT22;51898;49.864;8.550;2023-02-13T09:50:48;7.90;78.10
10089;DHT22;51898;49.864;8.550;2023-02-13T09:54:01;8.00;77.40
10089;DHT22;51898;49.864;8.550;2023-02-13T09:57:26;8.00;76.50
10089;DHT22;51898;49.864;8.550;2023-02-13T10:00:39;8.20;77.30
10089;DHT22;51898;49.864;8.550;2023-02-13T10:03:50;8.20;76.70
10089;DHT22;51898;49.864;8.550;2023-02-13T10:07:43;8.30;76.40
10089;DHT22;51898;49.864;8.550;2023-02-13T10:10:26;8.40;75.60
10089;DHT22;51898;49.864;8.550;2023-02-13T10:17:01;8.50;75.20
10089;DHT22;51898;49.864;8.550;2023-02-13T10:20:15;8.50;75.30
10089;DHT22;51898;49.864;8.550;2023-02-13T10:23:39;8.50;73.40
10089;DHT22;51898;49.864;8.550;2023-02-13T10:26:46;8.60;74.00
10089;DHT22;51898;49.864;8.550;2023-02-13T10:33:17;8.70;73.70
10089;DHT22;51898;49.864;8.550;2023-02-13T10:39:29;8.90;72.50
10089;DHT22;51898;49.864;8.550;2023-02-13T10:42:43;8.90;72.00
10089;DHT22;51898;49.864;8.550;2023-02-13T10:46:00;8.90;71.70
10089;DHT22;51898;49.864;8.550;2023-02-13T10:49:10;9.10;71.80
10089;DHT22;51898;49.864;8.550;2023-02-13T10:52:36;9.10;71.10
10089;DHT22;51898;49.864;8.550;2023-02-13T10:59:08;9.40;69.30
10089;DHT22;51898;49.864;8.550;2023-02-13T11:02:25;9.50;69.10
10089;DHT22;51898;49.864;8.550;2023-02-13T11:05:35;9.60;68.30
10089;DHT22;51898;49.864;8.550;2023-02-13T11:08:43;9.70;68.10
10089;DHT22;51898;49.864;8.550;2023-02-13T11:11:46;9.80;66.80
10089;DHT22;51898;49.864;8.550;2023-02-13T11:15:03;9.90;66.40
10089;DHT22;51898;49.864;8.550;2023-02-13T11:18:16;9.90;66.60
10089;DHT22;51898;49.864;8.550;2023-02-13T11:21:21;10.00;66.00
10089;DHT22;51898;49.864;8.550;2023-02-13T11:24:25;10.00;65.90
10089;DHT22;51898;49.864;8.550;2023-02-13T11:27:33;10.10;64.10
10089;DHT22;51898;49.864;8.550;2023-02-13T11:30:37;10.20;63.90
10089;DHT22;51898;49.864;8.550;2023-02-13T11:33:39;10.30;63.70
10089;DHT22;51898;49.864;8.550;2023-02-13T11:36:41;10.40;63.60
10089;DHT22;51898;49.864;8.550;2023-02-13T11:39:44;10.50;62.90
10089;DHT22;51898;49.864;8.550;2023-02-13T11:42:49;10.60;62.10
10089;DHT22;51898;49.864;8.550;2023-02-13T11:46:12;10.70;61.40
10089;DHT22;51898;49.864;8.550;2023-02-13T11:49:38;10.80;61.10
10089;DHT22;51898;49.864;8.550;2023-02-13T11:52:53;10.90;61.30
10089;DHT22;51898;49.864;8.550;2023-02-13T11:56:13;11.10;60.90
10089;DHT22;51898;49.864;8.550;2023-02-13T11:59:16;11.20;60.80
10089;DHT22;51898;49.864;8.550;2023-02-13T12:05:26;11.30;59.70
10089;DHT22;51898;49.864;8.550;2023-02-13T12:08:29;11.40;59.60
10089;DHT22;51898;49.864;8.550;2023-02-13T12:11:49;11.40;58.10
10089;DHT22;51898;49.864;8.550;2023-02-13T12:14:51;11.50;58.60
10089;DHT22;51898;49.864;8.550;2023-02-13T12:31:03;11.80;57.70
10089;DHT22;51898;49.864;8.550;2023-02-13T12:37:53;11.80;57.80
10089;DHT22;51898;49.864;8.550;2023-02-13T12:44:33;12.00;58.00
10089;DHT22;51898;49.864;8.550;2023-02-13T12:57:44;12.00;59.00
10089;DHT22;51898;49.864;8.550;2023-02-13T13:04:05;12.10;58.60
10089;DHT22;51898;49.864;8.550;2023-02-13T13:10:55;12.20;58.70
10089;DHT22;51898;49.864;8.550;2023-02-13T13:14:14;12.20;58.30
10089;DHT22;51898;49.864;8.550;2023-02-13T13:18:20;12.20;58.90
10089;DHT22;51898;49.864;8.550;2023-02-13T13:28:16;12.40;58.50
10089;DHT22;51898;49.864;8.550;2023-02-13T13:31:20;12.50;57.60
10089;DHT22;51898;49.864;8.550;2023-02-13T13:34:26;12.50;57.70
10089;DHT22;51898;49.864;8.550;2023-02-13T13:37:37;12.40;57.20
10089;DHT22;51898;49.864;8.550;2023-02-13T13:43:53;12.40;57.50
10089;DHT22;51898;49.864;8.550;2023-02-13T13:47:16;12.50;57.80
10089;DHT22;51898;49.864;8.550;2023-02-13T13:50:23;12.50;57.30
10089;DHT22;51898;49.864;8.550;2023-02-13T13:53:25;12.50;57.40
10089;DHT22;51898;49.864;8.550;2023-02-13T13:59:56;12.60;56.80
10089;DHT22;51898;49.864;8.550;2023-02-13T14:03:18;12.60;57.10
10089;DHT22;51898;49.864;8.550;2023-02-13T14:18:45;13.00;55.20
10089;DHT22;51898;49.864;8.550;2023-02-13T14:21:47;13.00;55.30
10089;DHT22;51898;49.864;8.550;2023-02-13T14:24:53;13.00;55.40
10089;DHT22;51898;49.864;8.550;2023-02-13T14:28:03;12.90;55.20
10089;DHT22;51898;49.864;8.550;2023-02-13T14:34:52;12.80;55.30
10089;DHT22;51898;49.864;8.550;2023-02-13T14:37:58;12.80;55.60
10089;DHT22;51898;49.864;8.550;2023-02-13T14:41:00;12.80;55.40
10089;DHT22;51898;49.864;8.550;2023-02-13T14:44:02;12.80;55.80
10089;DHT22;51898;49.864;8.550;2023-02-13T14:47:28;12.80;55.60
10089;DHT22;51898;49.864;8.550;2023-02-13T14:50:31;12.80;55.60
10089;DHT22;51898;49.864;8.550;2023-02-13T14:53:51;12.80;55.70
10089;DHT22;51898;49.864;8.550;2023-02-13T14:57:06;12.80;56.10
10089;DHT22;51898;49.864;8.550;2023-02-13T15:03:45;12.80;55.50
10089;DHT22;51898;49.864;8.550;2023-02-13T15:06:48;12.70;55.70
10089;DHT22;51898;49.864;8.550;2023-02-13T15:09:57;12.70;56.20
10089;DHT22;51898;49.864;8.550;2023-02-13T15:13:01;12.70;56.00
10089;DHT22;51898;49.864;8.550;2023-02-13T15:16:06;12.60;55.80
10089;DHT22;51898;49.864;8.550;2023-02-13T15:19:15;12.60;56.30
10089;DHT22;51898;49.864;8.550;2023-02-13T15:22:36;12.60;56.10
10089;DHT22;51898;49.864;8.550;2023-02-13T15:25:39;12.50;56.40
10089;DHT22;51898;49.864;8.550;2023-02-13T15:28:41;12.40;56.50
10089;DHT22;51898;49.864;8.550;2023-02-13T15:31:58;12.40;57.20
10089;DHT22;51898;49.864;8.550;2023-02-13T15:35:01;12.30;57.20
10089;DHT22;51898;49.864;8.550;2023-02-13T15:41:32;12.20;57.30
10089;DHT22;51898;49.864;8.550;2023-02-13T15:44:36;12.20;57.70
10089;DHT22;51898;49.864;8.550;2023-02-13T15:47:39;12.10;57.80
10089;DHT22;51898;49.864;8.550;2023-02-13T15:50:41;12.10;58.10
10089;DHT22;51898;49.864;8.550;2023-02-13T15:53:54;12.00;58.60
10089;DHT22;51898;49.864;8.550;2023-02-13T15:57:01;11.90;58.60
10089;DHT22;51898;49.864;8.550;2023-02-13T16:00:04;11.80;59.20
10089;DHT22;51898;49.864;8.550;2023-02-13T16:03:15;11.70;59.40
10089;DHT22;51898;49.864;8.550;2023-02-13T16:06:20;11.60;59.70
10089;DHT22;51898;49.864;8.550;2023-02-13T16:09:33;11.50;60.10
10089;DHT22;51898;49.864;8.550;2023-02-13T16:12:35;11.40;60.70
10089;DHT22;51898;49.864;8.550;2023-02-13T16:15:36;11.20;61.40
10089;DHT22;51898;49.864;8.550;2023-02-13T16:18:39;11.10;61.80
10089;DHT22;51898;49.864;8.550;2023-02-13T16:21:41;11.00;62.10
10089;DHT22;51898;49.864;8.550;2023-02-13T16:24:54;11.00;62.40
10089;DHT22;51898;49.864;8.550;2023-02-13T16:28:23;10.90;62.80
10089;DHT22;51898;49.864;8.550;2023-02-13T16:31:25;10.70;63.30
10089;DHT22;51898;49.864;8.550;2023-02-13T16:34:29;10.70;63.40
10089;DHT22;51898;49.864;8.550;2023-02-13T16:37:32;10.60;63.80
10089;DHT22;51898;49.864;8.550;2023-02-13T16:40:37;10.50;64.00
10089;DHT22;51898;49.864;8.550;2023-02-13T16:43:42;10.30;64.40
10089;DHT22;51898;49.864;8.550;2023-02-13T16:46:57;10.30;64.60
10089;DHT22;51898;49.864;8.550;2023-02-13T16:49:59;10.20;65.00
10089;DHT22;51898;49.864;8.550;2023-02-13T16:53:02;10.10;65.30
10089;DHT22;51898;49.864;8.550;2023-02-13T16:56:07;9.90;65.80
10089;DHT22;51898;49.864;8.550;2023-02-13T16:59:22;9.90;66.30
10089;DHT22;51898;49.864;8.550;2023-02-13T17:02:28;9.70;66.70
10089;DHT22;51898;49.864;8.550;2023-02-13T17:05:30;9.60;67.00
10089;DHT22;51898;49.864;8.550;2023-02-13T17:08:32;9.50;67.50
10089;DHT22;51898;49.864;8.550;2023-02-13T17:11:33;9.50;67.80
10089;DHT22;51898;49.864;8.550;2023-02-13T17:14:35;9.40;68.00
10089;DHT22;51898;49.864;8.550;2023-02-13T17:17:37;9.30;68.60
10089;DHT22;51898;49.864;8.550;2023-02-13T17:20:43;9.20;68.80
10089;DHT22;51898;49.864;8.550;2023-02-13T17:23:45;9.10;69.30
10089;DHT22;51898;49.864;8.550;2023-02-13T17:26:48;9.00;69.70
10089;DHT22;51898;49.864;8.550;2023-02-13T17:29:49;8.90;70.20
10089;DHT22;51898;49.864;8.550;2023-02-13T17:33:03;8.80;70.50
10089;DHT22;51898;49.864;8.550;2023-02-13T17:36:11;8.70;71.00
10089;DHT22;51898;49.864;8.550;2023-02-13T17:39:13;8.60;71.40
10089;DHT22;51898;49.864;8.550;2023-02-13T17:42:17;8.60;71.70
10089;DHT22;51898;49.864;8.550;2023-02-13T17:45:22;8.50;72.10
10089;DHT22;51898;49.864;8.550;2023-02-13T17:48:24;8.40;72.40
10089;DHT22;51898;49.864;8.550;2023-02-13T17:51:26;8.40;72.80
10089;DHT22;51898;49.864;8.550;2023-02-13T17:54:28;8.30;73.40
10089;DHT22;51898;49.864;8.550;2023-02-13T17:57:30;8.20;73.60
10089;DHT22;51898;49.864;8.550;2023-02-13T18:00:32;8.10;74.00
10089;DHT22;51898;49.864;8.550;2023-02-13T18:03:34;8.10;74.30
10089;DHT22;51898;49.864;8.550;2023-02-13T18:06:35;8.00;74.60
10089;DHT22;51898;49.864;8.550;2023-02-13T18:09:37;7.90;74.90
10089;DHT22;51898;49.864;8.550;2023-02-13T18:12:40;7.90;75.10
10089;DHT22;51898;49.864;8.550;2023-02-13T18:15:43;7.80;75.30
10089;DHT22;51898;49.864;8.550;2023-02-13T18:18:45;7.80;75.70
10089;DHT22;51898;49.864;8.550;2023-02-13T18:21:47;7.70;75.90
10089;DHT22;51898;49.864;8.550;2023-02-13T18:24:48;7.70;76.20
10089;DHT22;51898;49.864;8.550;2023-02-13T18:27:50;7.60;76.30
10089;DHT22;51898;49.864;8.550;2023-02-13T18:30:52;7.60;76.60
10089;DHT22;51898;49.864;8.550;2023-02-13T18:33:53;7.50;76.80
10089;DHT22;51898;49.864;8.550;2023-02-13T18:36:55;7.50;77.10
10089;DHT22;51898;49.864;8.550;2023-02-13T18:39:57;7.40;77.30
10089;DHT22;51898;49.864;8.550;2023-02-13T18:42:58;7.40;77.50
10089;DHT22;51898;49.864;8.550;2023-02-13T18:46:01;7.30;77.70
10089;DHT22;51898;49.864;8.550;2023-02-13T18:49:03;7.30;77.90
10089;DHT22;51898;49.864;8.550;2023-02-13T18:52:05;7.30;78.00
10089;DHT22;51898;49.864;8.550;2023-02-13T18:55:08;7.20;78.10
10089;DHT22;51898;49.864;8.550;2023-02-13T18:58:09;7.20;78.50
10089;DHT22;51898;49.864;8.550;2023-02-13T19:01:14;7.20;78.50
10089;DHT22;51898;49.864;8.550;2023-02-13T19:04:18;7.10;78.60
10089;DHT22;51898;49.864;8.550;2023-02-13T19:07:20;7.00;78.90
10089;DHT22;51898;49.864;8.550;2023-02-13T19:10:22;7.00;79.00
10089;DHT22;51898;49.864;8.550;2023-02-13T19:13:23;7.00;79.10
10089;DHT22;51898;49.864;8.550;2023-02-13T19:16:26;7.00;79.20
10089;DHT22;51898;49.864;8.550;2023-02-13T19:19:29;6.90;79.30
10089;DHT22;51898;49.864;8.550;2023-02-13T19:22:30;6.90;79.70
10089;DHT22;51898;49.864;8.550;2023-02-13T19:25:35;6.80;79.70
10089;DHT22;51898;49.864;8.550;2023-02-13T19:28:38;6.80;80.00
10089;DHT22;51898;49.864;8.550;2023-02-13T19:31:40;6.70;80.30
10089;DHT22;51898;49.864;8.550;2023-02-13T19:34:42;6.70;80.40
10089;DHT22;51898;49.864;8.550;2023-02-13T19:37:43;6.60;80.60
10089;DHT22;51898;49.864;8.550;2023-02-13T19:40:45;6.60;80.70
10089;DHT22;51898;49.864;8.550;2023-02-13T19:43:47;6.50;80.80
10089;DHT22;51898;49.864;8.550;2023-02-13T19:46:53;6.50;80.90
10089;DHT22;51898;49.864;8.550;2023-02-13T19:49:55;6.40;81.00
10089;DHT22;51898;49.864;8.550;2023-02-13T19:52:57;6.40;80.90
10089;DHT22;51898;49.864;8.550;2023-02-13T19:55:59;6.40;81.20
10089;DHT22;51898;49.864;8.550;2023-02-13T19:59:01;6.30;81.40
10089;DHT22;51898;49.864;8.550;2023-02-13T20:02:03;6.30;81.40
10089;DHT22;51898;49.864;8.550;2023-02-13T20:05:05;6.20;81.60
10089;DHT22;51898;49.864;8.550;2023-02-13T20:08:09;6.10;81.70
10089;DHT22;51898;49.864;8.550;2023-02-13T20:11:13;6.10;82.10
10089;DHT22;51898;49.864;8.550;2023-02-13T20:14:15;6.00;82.30
10089;DHT22;51898;49.864;8.550;2023-02-13T20:17:17;5.90;82.50
10089;DHT22;51898;49.864;8.550;2023-02-13T20:20:19;5.90;82.50
10089;DHT22;51898;49.864;8.550;2023-02-13T20:23:21;5.80;82.40
10089;DHT22;51898;49.864;8.550;2023-02-13T20:26:22;5.70;81.90
10089;DHT22;51898;49.864;8.550;2023-02-13T20:29:24;5.60;81.80
10089;DHT22;51898;49.864;8.550;2023-02-13T20:32:26;5.50;81.90
10089;DHT22;51898;49.864;8.550;2023-02-13T20:35:28;5.40;83.00
10089;DHT22;51898;49.864;8.550;2023-02-13T20:38:30;5.40;84.00
10089;DHT22;51898;49.864;8.550;2023-02-13T20:41:33;5.40;84.10
10089;DHT22;51898;49.864;8.550;2023-02-13T20:44:35;5.30;84.20
10089;DHT22;51898;49.864;8.550;2023-02-13T20:47:37;5.30;84.20
10089;DHT22;51898;49.864;8.550;2023-02-13T20:50:40;5.20;84.20
10089;DHT22;51898;49.864;8.550;2023-02-13T20:53:43;5.20;84.30
10089;DHT22;51898;49.864;8.550;2023-02-13T20:56:45;5.10;84.20
10089;DHT22;51898;49.864;8.550;2023-02-13T20:59:48;5.00;83.40
10089;DHT22;51898;49.864;8.550;2023-02-13T21:02:49;4.90;82.80
10089;DHT22;51898;49.864;8.550;2023-02-13T21:05:51;4.70;82.70
10089;DHT22;51898;49.864;8.550;2023-02-13T21:08:53;4.60;83.10
10089;DHT22;51898;49.864;8.550;2023-02-13T21:11:55;4.50;84.00
10089;DHT22;51898;49.864;8.550;2023-02-13T21:14:57;4.40;84.00
10089;DHT22;51898;49.864;8.550;2023-02-13T21:17:58;4.30;83.60
10089;DHT22;51898;49.864;8.550;2023-02-13T21:21:02;4.20;84.00
10089;DHT22;51898;49.864;8.550;2023-02-13T21:24:07;4.10;84.50
10089;DHT22;51898;49.864;8.550;2023-02-13T21:27:09;4.00;85.20
10089;DHT22;51898;49.864;8.550;2023-02-13T21:30:11;3.80;86.60
10089;DHT22;51898;49.864;8.550;2023-02-13T21:33:13;3.80;87.20
10089;DHT22;51898;49.864;8.550;2023-02-13T21:36:15;3.70;87.60
10089;DHT22;51898;49.864;8.550;2023-02-13T21:39:16;3.60;88.80
10089;DHT22;51898;49.864;8.550;2023-02-13T21:42:18;3.60;88.80
10089;DHT22;51898;49.864;8.550;2023-02-13T21:45:20;3.50;89.30
10089;DHT22;51898;49.864;8.550;2023-02-13T21:48:22;3.40;89.50
10089;DHT22;51898;49.864;8.550;2023-02-13T21:51:25;3.30;90.10
10089;DHT22;51898;49.864;8.550;2023-02-13T21:54:27;3.30;90.50